Липки

Карта отелей и гостиниц, располагающихся рядом с аэропортом Липки :

Липки
Минск
Минская область 53° 54' 43.8012" N, 27° 42' 28.8612" E
Код аэродрома ИКАО
UMMI
Код аэродрома RU
УММИ
Координаты
N53.91217° E027.70802°
Превышение над уровнем моря
229
Основная полоса
01/19
Курс магнитный
010,3/190,3
Длина основной ВПП
726
Ширина основной ВПП
40
Покрытие основной ВПП
Твёрдое (бетон)
Освещение ВПП
По запросу
Тип: 
Аэродром
Класс аэродрома: 
Принадлежность: 
МЧС
Статус: 
Действующий
Сайт: 
http://avia.mchs.gov.by/
E-mail аэродрома: 
Страна: 
Беларусь
Регион: 
Минская область
Город: 
Минск
Дополнительная информация: 
Оператор: ГААСУ МЧС РБ. Согласно Акту обследования на соответствие нормам годности к эксплуатации аэродромов гос. авиации от 01.04.2013 длина ИВПП уменьшена до 726 м.

Найти трансфер

С помощью этой формы Вы можете найти трансфер из аэропорта Липки в город, аэропорт или вокзал:

Погода в аэропортах:

Авиационная погода в Магнитогорске

Погода METAR: 
USCM 282200Z 31003MPS 5000 BR SCT040CB 04/02 Q1009 R36/090060 TEMPO 1500 BR RMK QFE719
Время наблюдения
2022-06-28T22:00:00Z
Температура C
4.0
Точка росы
2.0
Направление ветра
310
Скорость ветра (узлы)
6
Метео видимость
3.11
Облачность
SCT
Нижняя граница облачности (футы)
4000
Явления погоды
BR
Условия полета
MVFR
Аэропорт подробнее: 
SCT – разбросанная отдельная облачность;
BR – дымка (видимость от 1 до 9 км);

Авиационная погода в Архангельске

Регион: 
Погода METAR: 
ULAA 282200Z 00000MPS 9999 MIFG NSC 06/06 Q1028 R26/CLRD70 NOSIG RMK QFE769/1026
Время наблюдения
2022-06-28T22:00:00Z
Температура C
6.0
Точка росы
6.0
Направление ветра
0
Скорость ветра (узлы)
0
Метео видимость
6.21
Облачность
CLR
Нижняя граница облачности (футы)
Явления погоды
MIFG
Условия полета
VFR
Аэропорт подробнее: 
CLR — нет облаков ниже 3000 м
MIFG - туман поземный;

Авиационная погода в Закаталы

Регион: 
Погода METAR: 
UBBY 040100Z 08014KT 5000 -SHRA SCT040CB OVC045 15/14 Q1019 NOSIG RMK MT OBSC
Время наблюдения
2022-07-04T01:00:00Z
Температура C
15.0
Точка росы
14.0
Направление ветра
80
Скорость ветра (узлы)
14
Метео видимость
3.11
Облачность
SCT
OVC
Нижняя граница облачности (футы)
4000
4500
Явления погоды
-SHRA
Условия полета
MVFR
SCT – разбросанная отдельная облачность; OVC – сплошная облачность;
-SHRA - слабый ливневой дождь;

Авиационная погода в Игнатьево

Регион: 
Погода METAR: 
UHBB 282200Z 35002MPS 0150 0100W R36/M0200N FG VV002 18/18 Q1003 R36/090060 NOSIG RMK QBB060 QFE735/0980
Время наблюдения
2022-06-28T22:00:00Z
Температура C
18.0
Точка росы
18.0
Направление ветра
350
Скорость ветра (узлы)
4
Метео видимость
0.09
Облачность
OVX
Нижняя граница облачности (футы)
0
Явления погоды
FG
Условия полета
LIFR
Аэропорт подробнее: 
FG – туман (небо не видно, температура воздуха выше нуля или ноль);